sensor_id;sensor_type;location;lat;lon;timestamp;pressure;altitude;pressure_sealevel;temperature;humidity
46782;BME280;32541;46.298;11.506;2022-08-11T00:01:55;90151.75;;;16.82;87.80
46782;BME280;32541;46.298;11.506;2022-08-11T00:07:47;90144.38;;;16.87;89.22
46782;BME280;32541;46.298;11.506;2022-08-11T00:10:27;90148.25;;;16.82;89.60
46782;BME280;32541;46.298;11.506;2022-08-11T00:13:18;90142.94;;;16.74;89.61
46782;BME280;32541;46.298;11.506;2022-08-11T00:15:52;90156.59;;;16.70;89.66
46782;BME280;32541;46.298;11.506;2022-08-11T00:18:36;90153.91;;;16.72;89.85
46782;BME280;32541;46.298;11.506;2022-08-11T00:21:06;90160.22;;;16.61;89.64
46782;BME280;32541;46.298;11.506;2022-08-11T00:23:52;90157.28;;;16.47;89.94
46782;BME280;32541;46.298;11.506;2022-08-11T00:26:22;90159.22;;;16.45;89.64
46782;BME280;32541;46.298;11.506;2022-08-11T00:29:12;90146.41;;;16.40;89.99
46782;BME280;32541;46.298;11.506;2022-08-11T00:31:59;90142.81;;;16.60;90.00
46782;BME280;32541;46.298;11.506;2022-08-11T00:34:36;90149.09;;;16.73;89.56
46782;BME280;32541;46.298;11.506;2022-08-11T00:37:10;90138.72;;;16.61;89.50
46782;BME280;32541;46.298;11.506;2022-08-11T00:39:49;90144.50;;;16.54;89.96
46782;BME280;32541;46.298;11.506;2022-08-11T00:45:33;90143.75;;;16.30;91.12
46782;BME280;32541;46.298;11.506;2022-08-11T00:48:44;90141.59;;;16.29;91.05
46782;BME280;32541;46.298;11.506;2022-08-11T01:00:23;90144.47;;;16.31;91.20
46782;BME280;32541;46.298;11.506;2022-08-11T01:11:41;90140.63;;;16.24;92.88
46782;BME280;32541;46.298;11.506;2022-08-11T01:19:55;90136.66;;;16.39;91.62
46782;BME280;32541;46.298;11.506;2022-08-11T01:28:53;90145.38;;;15.89;93.42
46782;BME280;32541;46.298;11.506;2022-08-11T01:34:48;90130.41;;;15.82;93.70
46782;BME280;32541;46.298;11.506;2022-08-11T01:52:01;90121.97;;;15.92;92.51
46782;BME280;32541;46.298;11.506;2022-08-11T01:55:11;90131.66;;;15.91;91.85
46782;BME280;32541;46.298;11.506;2022-08-11T02:06:40;90124.91;;;16.05;91.22
46782;BME280;32541;46.298;11.506;2022-08-11T02:22:48;90102.25;;;15.97;92.44
46782;BME280;32541;46.298;11.506;2022-08-11T02:26:04;90094.25;;;15.92;92.96
46782;BME280;32541;46.298;11.506;2022-08-11T02:31:19;90095.50;;;16.00;92.33
46782;BME280;32541;46.298;11.506;2022-08-11T02:34:14;90094.75;;;16.00;91.95
46782;BME280;32541;46.298;11.506;2022-08-11T02:36:51;90095.97;;;15.97;92.19
46782;BME280;32541;46.298;11.506;2022-08-11T02:39:20;90088.47;;;15.88;92.32
46782;BME280;32541;46.298;11.506;2022-08-11T02:41:51;90084.97;;;15.87;92.10
46782;BME280;32541;46.298;11.506;2022-08-11T02:45:33;90078.94;;;15.91;91.44
46782;BME280;32541;46.298;11.506;2022-08-11T02:47:53;90077.84;;;15.84;91.56
46782;BME280;32541;46.298;11.506;2022-08-11T02:51:14;90079.41;;;15.76;91.71
46782;BME280;32541;46.298;11.506;2022-08-11T02:53:53;90079.59;;;15.56;92.28
46782;BME280;32541;46.298;11.506;2022-08-11T02:56:39;90075.13;;;15.51;91.98
46782;BME280;32541;46.298;11.506;2022-08-11T02:59:36;90081.00;;;15.46;91.74
46782;BME280;32541;46.298;11.506;2022-08-11T03:13:40;90074.72;;;15.13;90.56
46782;BME280;32541;46.298;11.506;2022-08-11T03:16:55;90067.22;;;15.03;90.72
46782;BME280;32541;46.298;11.506;2022-08-11T03:19:36;90076.34;;;14.94;91.79
46782;BME280;32541;46.298;11.506;2022-08-11T03:25:29;90072.72;;;14.92;90.83
46782;BME280;32541;46.298;11.506;2022-08-11T03:28:07;90067.19;;;14.92;90.37
46782;BME280;32541;46.298;11.506;2022-08-11T03:33:59;90077.84;;;14.86;89.97
46782;BME280;32541;46.298;11.506;2022-08-11T03:47:21;90077.63;;;14.61;92.19
46782;BME280;32541;46.298;11.506;2022-08-11T04:11:50;90068.50;;;14.49;92.68
46782;BME280;32541;46.298;11.506;2022-08-11T04:14:42;90075.75;;;14.54;93.23
46782;BME280;32541;46.298;11.506;2022-08-11T04:25:28;90070.56;;;14.69;93.44
46782;BME280;32541;46.298;11.506;2022-08-11T04:31:47;90063.84;;;14.72;94.71
46782;BME280;32541;46.298;11.506;2022-08-11T04:34:35;90064.81;;;14.77;94.86
46782;BME280;32541;46.298;11.506;2022-08-11T04:46:25;90066.50;;;15.03;93.43
46782;BME280;32541;46.298;11.506;2022-08-11T05:10:41;90057.75;;;15.18;94.81
46782;BME280;32541;46.298;11.506;2022-08-11T05:13:11;90058.75;;;15.23;94.74
46782;BME280;32541;46.298;11.506;2022-08-11T05:16:09;90050.22;;;15.30;94.75
46782;BME280;32541;46.298;11.506;2022-08-11T05:18:54;90052.28;;;15.41;95.78
46782;BME280;32541;46.298;11.506;2022-08-11T05:21:42;90049.63;;;15.65;96.17
46782;BME280;32541;46.298;11.506;2022-08-11T05:24:43;90045.50;;;15.77;94.59
46782;BME280;32541;46.298;11.506;2022-08-11T05:27:35;90047.47;;;15.86;93.16
46782;BME280;32541;46.298;11.506;2022-08-11T05:30:26;90053.97;;;15.79;91.36
46782;BME280;32541;46.298;11.506;2022-08-11T05:33:15;90051.44;;;15.83;90.23
46782;BME280;32541;46.298;11.506;2022-08-11T05:36:39;90055.28;;;15.67;89.99
46782;BME280;32541;46.298;11.506;2022-08-11T05:39:23;90047.53;;;15.53;90.56
46782;BME280;32541;46.298;11.506;2022-08-11T05:42:08;90045.00;;;15.57;90.69
46782;BME280;32541;46.298;11.506;2022-08-11T05:45:08;90055.38;;;15.69;90.39
46782;BME280;32541;46.298;11.506;2022-08-11T05:47:53;90055.28;;;15.67;92.40
46782;BME280;32541;46.298;11.506;2022-08-11T05:50:40;90049.13;;;15.68;93.11
46782;BME280;32541;46.298;11.506;2022-08-11T05:53:25;90046.84;;;15.76;93.13
46782;BME280;32541;46.298;11.506;2022-08-11T05:56:10;90055.19;;;15.88;92.58
46782;BME280;32541;46.298;11.506;2022-08-11T05:58:51;90045.06;;;16.04;92.58
46782;BME280;32541;46.298;11.506;2022-08-11T06:01:22;90045.06;;;16.16;92.05
46782;BME280;32541;46.298;11.506;2022-08-11T06:03:51;90046.50;;;16.28;91.46
46782;BME280;32541;46.298;11.506;2022-08-11T06:06:37;90046.59;;;16.30;90.86
46782;BME280;32541;46.298;11.506;2022-08-11T06:09:06;90048.06;;;16.31;90.22
46782;BME280;32541;46.298;11.506;2022-08-11T06:11:37;90058.44;;;16.42;89.40
46782;BME280;32541;46.298;11.506;2022-08-11T06:14:05;90047.94;;;16.52;87.78
46782;BME280;32541;46.298;11.506;2022-08-11T06:16:32;90057.13;;;16.55;87.77
46782;BME280;32541;46.298;11.506;2022-08-11T06:18:58;90058.78;;;16.48;88.13
46782;BME280;32541;46.298;11.506;2022-08-11T06:21:24;90060.50;;;16.53;88.50
46782;BME280;32541;46.298;11.506;2022-08-11T06:23:51;90066.03;;;16.53;87.79
46782;BME280;32541;46.298;11.506;2022-08-11T06:26:18;90062.91;;;16.59;85.13
46782;BME280;32541;46.298;11.506;2022-08-11T06:28:46;90069.19;;;16.59;84.61
46782;BME280;32541;46.298;11.506;2022-08-11T06:31:15;90067.25;;;16.62;85.22
46782;BME280;32541;46.298;11.506;2022-08-11T06:33:53;90064.09;;;16.67;86.36
46782;BME280;32541;46.298;11.506;2022-08-11T06:39:38;90061.38;;;16.93;85.30
46782;BME280;32541;46.298;11.506;2022-08-11T06:42:15;90058.25;;;16.98;84.09
46782;BME280;32541;46.298;11.506;2022-08-11T06:45:00;90059.19;;;17.03;84.52
46782;BME280;32541;46.298;11.506;2022-08-11T06:47:31;90064.69;;;17.14;83.56
46782;BME280;32541;46.298;11.506;2022-08-11T06:49:58;90057.44;;;17.21;83.69
46782;BME280;32541;46.298;11.506;2022-08-11T06:52:44;90060.56;;;17.27;83.08
46782;BME280;32541;46.298;11.506;2022-08-11T06:55:13;90056.56;;;17.30;82.84
46782;BME280;32541;46.298;11.506;2022-08-11T06:58:00;90063.03;;;17.35;81.09
46782;BME280;32541;46.298;11.506;2022-08-11T07:00:47;90061.34;;;17.41;81.37
46782;BME280;32541;46.298;11.506;2022-08-11T07:03:17;90062.50;;;17.50;81.44
46782;BME280;32541;46.298;11.506;2022-08-11T07:05:47;90068.34;;;17.67;81.19
46782;BME280;32541;46.298;11.506;2022-08-11T07:14:26;90053.53;;;18.02;79.79
46782;BME280;32541;46.298;11.506;2022-08-11T07:17:14;90050.84;;;18.17;79.39
46782;BME280;32541;46.298;11.506;2022-08-11T07:19:43;90044.00;;;18.32;78.25
46782;BME280;32541;46.298;11.506;2022-08-11T07:22:31;90046.03;;;18.45;76.69
46782;BME280;32541;46.298;11.506;2022-08-11T07:25:15;90044.94;;;18.50;77.16
46782;BME280;32541;46.298;11.506;2022-08-11T07:28:08;90035.75;;;18.61;76.82
46782;BME280;32541;46.298;11.506;2022-08-11T07:30:57;90035.44;;;18.69;74.66
46782;BME280;32541;46.298;11.506;2022-08-11T07:33:31;90043.06;;;18.82;73.16
46782;BME280;32541;46.298;11.506;2022-08-11T07:36:04;90040.13;;;19.07;72.90
46782;BME280;32541;46.298;11.506;2022-08-11T07:38:42;90039.75;;;19.42;69.88
46782;BME280;32541;46.298;11.506;2022-08-11T07:41:13;90033.94;;;19.52;68.23
46782;BME280;32541;46.298;11.506;2022-08-11T07:43:40;90034.03;;;19.83;66.95
46782;BME280;32541;46.298;11.506;2022-08-11T07:46:07;90032.34;;;20.23;67.55
46782;BME280;32541;46.298;11.506;2022-08-11T07:48:52;90034.09;;;20.45;68.26
46782;BME280;32541;46.298;11.506;2022-08-11T07:51:38;90029.09;;;20.75;67.72
46782;BME280;32541;46.298;11.506;2022-08-11T07:54:23;90025.22;;;21.16;65.86
46782;BME280;32541;46.298;11.506;2022-08-11T07:56:49;90030.22;;;21.35;63.50
46782;BME280;32541;46.298;11.506;2022-08-11T07:59:17;90019.44;;;21.45;64.29
46782;BME280;32541;46.298;11.506;2022-08-11T08:02:02;90018.41;;;21.54;63.96
46782;BME280;32541;46.298;11.506;2022-08-11T08:04:46;90021.31;;;21.91;60.94
46782;BME280;32541;46.298;11.506;2022-08-11T08:07:31;90022.06;;;22.11;61.84
46782;BME280;32541;46.298;11.506;2022-08-11T08:10:17;90019.63;;;22.22;58.84
46782;BME280;32541;46.298;11.506;2022-08-11T08:13:02;90019.19;;;22.09;55.60
46782;BME280;32541;46.298;11.506;2022-08-11T08:15:47;90017.81;;;22.10;55.36
46782;BME280;32541;46.298;11.506;2022-08-11T08:18:36;90017.13;;;21.92;57.53
46782;BME280;32541;46.298;11.506;2022-08-11T08:21:03;90016.53;;;20.76;61.85
46782;BME280;32541;46.298;11.506;2022-08-11T08:23:43;90025.94;;;20.05;63.66
46782;BME280;32541;46.298;11.506;2022-08-11T08:26:13;90018.69;;;19.39;66.58
46782;BME280;32541;46.298;11.506;2022-08-11T08:29:06;90023.34;;;19.34;68.39
46782;BME280;32541;46.298;11.506;2022-08-11T08:31:50;90023.47;;;19.23;66.51
46782;BME280;32541;46.298;11.506;2022-08-11T08:34:17;90020.41;;;19.17;65.14
46782;BME280;32541;46.298;11.506;2022-08-11T08:36:47;90011.59;;;19.22;64.53
46782;BME280;32541;46.298;11.506;2022-08-11T08:39:14;90015.03;;;19.21;62.85
46782;BME280;32541;46.298;11.506;2022-08-11T08:41:42;90016.13;;;19.00;62.05
46782;BME280;32541;46.298;11.506;2022-08-11T08:44:10;90014.81;;;19.17;64.20
46782;BME280;32541;46.298;11.506;2022-08-11T08:46:43;90010.53;;;19.43;62.79
46782;BME280;32541;46.298;11.506;2022-08-11T08:49:13;90013.13;;;19.39;62.09
46782;BME280;32541;46.298;11.506;2022-08-11T08:51:41;90008.66;;;19.48;62.69
46782;BME280;32541;46.298;11.506;2022-08-11T08:54:13;90008.94;;;19.54;63.81
46782;BME280;32541;46.298;11.506;2022-08-11T08:56:40;90008.22;;;19.53;61.29
46782;BME280;32541;46.298;11.506;2022-08-11T08:59:08;90008.75;;;19.94;58.55
46782;BME280;32541;46.298;11.506;2022-08-11T09:01:51;90006.84;;;20.15;60.47
46782;BME280;32541;46.298;11.506;2022-08-11T09:04:17;89993.06;;;20.66;58.45
46782;BME280;32541;46.298;11.506;2022-08-11T09:06:45;89996.38;;;21.11;58.17
46782;BME280;32541;46.298;11.506;2022-08-11T09:09:12;89995.50;;;21.77;57.30
46782;BME280;32541;46.298;11.506;2022-08-11T09:11:39;89993.66;;;22.01;55.72
46782;BME280;32541;46.298;11.506;2022-08-11T09:14:22;89990.53;;;22.11;55.01
46782;BME280;32541;46.298;11.506;2022-08-11T09:16:48;89993.34;;;22.31;54.48
46782;BME280;32541;46.298;11.506;2022-08-11T09:19:17;89987.97;;;22.17;53.66
46782;BME280;32541;46.298;11.506;2022-08-11T09:21:44;89983.34;;;22.06;54.53
46782;BME280;32541;46.298;11.506;2022-08-11T09:24:30;89982.06;;;22.09;54.01
46782;BME280;32541;46.298;11.506;2022-08-11T09:27:14;89986.84;;;22.06;54.10
46782;BME280;32541;46.298;11.506;2022-08-11T09:29:39;89978.38;;;22.42;53.30
46782;BME280;32541;46.298;11.506;2022-08-11T09:32:05;89978.56;;;21.91;51.70
46782;BME280;32541;46.298;11.506;2022-08-11T09:34:33;89977.84;;;21.90;54.98
46782;BME280;32541;46.298;11.506;2022-08-11T09:37:00;89974.13;;;22.21;52.52
46782;BME280;32541;46.298;11.506;2022-08-11T09:39:46;89966.28;;;22.57;54.29
46782;BME280;32541;46.298;11.506;2022-08-11T09:42:31;89967.88;;;22.82;52.53
46782;BME280;32541;46.298;11.506;2022-08-11T09:45:15;89964.66;;;22.69;52.15
46782;BME280;32541;46.298;11.506;2022-08-11T09:47:42;89962.41;;;22.86;51.31
46782;BME280;32541;46.298;11.506;2022-08-11T09:50:09;89958.34;;;23.32;51.18
46782;BME280;32541;46.298;11.506;2022-08-11T09:52:37;89955.56;;;23.54;47.76
46782;BME280;32541;46.298;11.506;2022-08-11T09:55:03;89962.81;;;23.39;48.55
46782;BME280;32541;46.298;11.506;2022-08-11T09:57:38;89950.47;;;23.27;49.31
46782;BME280;32541;46.298;11.506;2022-08-11T10:00:28;89952.09;;;23.12;49.40
46782;BME280;32541;46.298;11.506;2022-08-11T10:02:54;89951.44;;;23.35;49.51
46782;BME280;32541;46.298;11.506;2022-08-11T10:05:22;89941.09;;;23.40;48.77
46782;BME280;32541;46.298;11.506;2022-08-11T10:08:08;89947.88;;;23.54;48.49
46782;BME280;32541;46.298;11.506;2022-08-11T10:10:37;89937.09;;;23.47;47.03
46782;BME280;32541;46.298;11.506;2022-08-11T10:13:16;89938.16;;;23.57;48.60
46782;BME280;32541;46.298;11.506;2022-08-11T10:15:44;89925.50;;;23.80;48.50
46782;BME280;32541;46.298;11.506;2022-08-11T10:18:20;89926.09;;;24.00;47.01
46782;BME280;32541;46.298;11.506;2022-08-11T10:21:14;89921.78;;;23.97;47.84
46782;BME280;32541;46.298;11.506;2022-08-11T10:23:42;89923.25;;;23.09;48.51
46782;BME280;32541;46.298;11.506;2022-08-11T10:26:28;89912.34;;;22.98;48.80
46782;BME280;32541;46.298;11.506;2022-08-11T10:29:13;89911.50;;;23.37;47.81
46782;BME280;32541;46.298;11.506;2022-08-11T10:31:57;89905.97;;;22.95;48.05
46782;BME280;32541;46.298;11.506;2022-08-11T10:34:47;89917.56;;;22.66;46.99
46782;BME280;32541;46.298;11.506;2022-08-11T10:37:14;89909.22;;;22.48;47.57
46782;BME280;32541;46.298;11.506;2022-08-11T10:39:40;89907.72;;;22.45;47.68
46782;BME280;32541;46.298;11.506;2022-08-11T10:42:06;89897.84;;;23.05;48.48
46782;BME280;32541;46.298;11.506;2022-08-11T10:44:52;89899.19;;;23.46;48.32
46782;BME280;32541;46.298;11.506;2022-08-11T10:47:18;89890.75;;;23.24;47.74
46782;BME280;32541;46.298;11.506;2022-08-11T10:50:09;89881.88;;;23.53;46.23
46782;BME280;32541;46.298;11.506;2022-08-11T10:52:56;89894.22;;;24.13;46.66
46782;BME280;32541;46.298;11.506;2022-08-11T10:55:42;89875.31;;;24.42;45.52
46782;BME280;32541;46.298;11.506;2022-08-11T10:58:30;89885.84;;;24.67;45.14
46782;BME280;32541;46.298;11.506;2022-08-11T11:01:20;89872.69;;;25.01;44.77
46782;BME280;32541;46.298;11.506;2022-08-11T11:03:57;89877.63;;;24.75;45.49
46782;BME280;32541;46.298;11.506;2022-08-11T11:06:50;89879.59;;;24.19;45.95
46782;BME280;32541;46.298;11.506;2022-08-11T11:09:40;89873.75;;;23.87;44.03
46782;BME280;32541;46.298;11.506;2022-08-11T11:12:06;89867.06;;;24.22;46.00
46782;BME280;32541;46.298;11.506;2022-08-11T11:14:52;89868.44;;;24.47;45.85
46782;BME280;32541;46.298;11.506;2022-08-11T11:17:55;89867.25;;;24.56;45.22
46782;BME280;32541;46.298;11.506;2022-08-11T11:20:25;89855.00;;;24.97;44.68
46782;BME280;32541;46.298;11.506;2022-08-11T11:22:59;89859.75;;;25.48;45.70
46782;BME280;32541;46.298;11.506;2022-08-11T11:32:12;89852.53;;;24.83;44.39
46782;BME280;32541;46.298;11.506;2022-08-11T11:37:09;89857.31;;;23.54;46.45
46782;BME280;32541;46.298;11.506;2022-08-11T11:39:37;89857.84;;;23.96;45.41
46782;BME280;32541;46.298;11.506;2022-08-11T11:42:06;89852.69;;;24.63;44.64
46782;BME280;32541;46.298;11.506;2022-08-11T11:44:33;89839.25;;;24.60;42.03
46782;BME280;32541;46.298;11.506;2022-08-11T11:47:00;89844.03;;;24.81;43.58
46782;BME280;32541;46.298;11.506;2022-08-11T11:49:27;89842.63;;;24.54;42.77
46782;BME280;32541;46.298;11.506;2022-08-11T11:51:55;89831.75;;;24.96;45.19
46782;BME280;32541;46.298;11.506;2022-08-11T11:54:23;89829.47;;;25.18;43.53
46782;BME280;32541;46.298;11.506;2022-08-11T11:56:51;89826.50;;;25.72;43.85
46782;BME280;32541;46.298;11.506;2022-08-11T11:59:19;89827.03;;;25.96;44.12
46782;BME280;32541;46.298;11.506;2022-08-11T12:02:08;89823.00;;;26.41;41.49
46782;BME280;32541;46.298;11.506;2022-08-11T12:04:36;89826.44;;;25.68;41.72
46782;BME280;32541;46.298;11.506;2022-08-11T12:07:03;89825.31;;;26.15;40.38
46782;BME280;32541;46.298;11.506;2022-08-11T12:09:48;89821.88;;;26.18;40.96
46782;BME280;32541;46.298;11.506;2022-08-11T12:12:14;89819.19;;;26.62;41.83
46782;BME280;32541;46.298;11.506;2022-08-11T12:14:58;89799.66;;;25.69;40.85
46782;BME280;32541;46.298;11.506;2022-08-11T12:17:24;89807.34;;;25.98;41.63
46782;BME280;32541;46.298;11.506;2022-08-11T12:19:51;89808.56;;;26.23;43.78
46782;BME280;32541;46.298;11.506;2022-08-11T12:22:18;89797.38;;;25.59;40.16
46782;BME280;32541;46.298;11.506;2022-08-11T12:25:02;89802.47;;;25.37;41.00
46782;BME280;32541;46.298;11.506;2022-08-11T12:27:48;89802.63;;;25.75;42.85
46782;BME280;32541;46.298;11.506;2022-08-11T12:30:14;89789.50;;;25.54;41.02
46782;BME280;32541;46.298;11.506;2022-08-11T12:32:41;89792.25;;;26.17;41.75
46782;BME280;32541;46.298;11.506;2022-08-11T12:35:08;89787.00;;;25.68;40.75
46782;BME280;32541;46.298;11.506;2022-08-11T12:37:39;89800.84;;;25.58;40.91
46782;BME280;32541;46.298;11.506;2022-08-11T12:40:11;89793.19;;;25.96;41.35
46782;BME280;32541;46.298;11.506;2022-08-11T12:43:00;89790.13;;;25.20;41.68
46782;BME280;32541;46.298;11.506;2022-08-11T12:45:56;89769.28;;;25.63;42.70
46782;BME280;32541;46.298;11.506;2022-08-11T12:48:22;89774.06;;;25.90;41.69
46782;BME280;32541;46.298;11.506;2022-08-11T12:51:16;89777.00;;;25.63;40.23
46782;BME280;32541;46.298;11.506;2022-08-11T12:54:16;89762.88;;;25.61;41.82
46782;BME280;32541;46.298;11.506;2022-08-11T12:56:49;89771.09;;;25.82;40.29
46782;BME280;32541;46.298;11.506;2022-08-11T12:59:34;89777.72;;;24.74;41.90
46782;BME280;32541;46.298;11.506;2022-08-11T13:02:20;89762.72;;;24.91;42.89
46782;BME280;32541;46.298;11.506;2022-08-11T13:05:07;89763.31;;;25.17;42.03
46782;BME280;32541;46.298;11.506;2022-08-11T13:07:37;89753.44;;;25.80;43.30
46782;BME280;32541;46.298;11.506;2022-08-11T13:10:08;89747.59;;;26.41;42.25
46782;BME280;32541;46.298;11.506;2022-08-11T13:12:35;89753.47;;;26.56;39.35
46782;BME280;32541;46.298;11.506;2022-08-11T13:15:23;89759.56;;;26.80;40.63
46782;BME280;32541;46.298;11.506;2022-08-11T13:17:51;89750.88;;;25.92;40.48
46782;BME280;32541;46.298;11.506;2022-08-11T13:20:20;89742.47;;;25.28;40.39
46782;BME280;32541;46.298;11.506;2022-08-11T13:22:49;89737.88;;;25.45;41.68
46782;BME280;32541;46.298;11.506;2022-08-11T13:25:17;89737.16;;;25.76;40.77
46782;BME280;32541;46.298;11.506;2022-08-11T13:27:45;89730.03;;;26.07;40.45
46782;BME280;32541;46.298;11.506;2022-08-11T13:30:15;89727.44;;;26.19;39.00
46782;BME280;32541;46.298;11.506;2022-08-11T13:33:02;89733.69;;;26.52;40.26
46782;BME280;32541;46.298;11.506;2022-08-11T13:35:31;89733.31;;;26.31;38.67
46782;BME280;32541;46.298;11.506;2022-08-11T13:38:09;89722.03;;;25.60;39.73
46782;BME280;32541;46.298;11.506;2022-08-11T13:40:38;89711.97;;;26.20;40.51
46782;BME280;32541;46.298;11.506;2022-08-11T13:43:06;89721.81;;;26.59;41.27
46782;BME280;32541;46.298;11.506;2022-08-11T13:45:34;89715.88;;;26.81;39.45
46782;BME280;32541;46.298;11.506;2022-08-11T13:48:02;89707.91;;;27.15;38.39
46782;BME280;32541;46.298;11.506;2022-08-11T13:50:32;89719.28;;;27.19;38.34
46782;BME280;32541;46.298;11.506;2022-08-11T13:53:21;89720.84;;;26.42;39.40
46782;BME280;32541;46.298;11.506;2022-08-11T13:55:47;89709.38;;;25.96;38.56
46782;BME280;32541;46.298;11.506;2022-08-11T13:58:14;89711.34;;;25.54;40.07
46782;BME280;32541;46.298;11.506;2022-08-11T14:00:43;89700.03;;;25.50;39.64
46782;BME280;32541;46.298;11.506;2022-08-11T14:03:11;89700.00;;;25.18;40.94
46782;BME280;32541;46.298;11.506;2022-08-11T14:05:45;89698.06;;;25.57;39.73
46782;BME280;32541;46.298;11.506;2022-08-11T14:08:17;89690.50;;;26.03;41.86
46782;BME280;32541;46.298;11.506;2022-08-11T14:10:47;89693.22;;;26.37;39.74
46782;BME280;32541;46.298;11.506;2022-08-11T14:13:35;89689.75;;;26.01;39.49
46782;BME280;32541;46.298;11.506;2022-08-11T14:16:08;89685.19;;;25.83;39.34
46782;BME280;32541;46.298;11.506;2022-08-11T14:18:39;89682.56;;;25.58;40.28
46782;BME280;32541;46.298;11.506;2022-08-11T14:21:13;89675.75;;;25.69;40.02
46782;BME280;32541;46.298;11.506;2022-08-11T14:24:01;89675.16;;;26.12;42.11
46782;BME280;32541;46.298;11.506;2022-08-11T14:26:29;89683.72;;;25.47;39.51
46782;BME280;32541;46.298;11.506;2022-08-11T14:29:02;89673.31;;;25.19;40.99
46782;BME280;32541;46.298;11.506;2022-08-11T14:31:31;89669.38;;;25.32;41.17
46782;BME280;32541;46.298;11.506;2022-08-11T14:34:01;89673.94;;;25.16;41.57
46782;BME280;32541;46.298;11.506;2022-08-11T14:36:38;89659.72;;;25.10;42.13
46782;BME280;32541;46.298;11.506;2022-08-11T14:39:07;89661.78;;;25.41;43.01
46782;BME280;32541;46.298;11.506;2022-08-11T14:41:40;89665.72;;;25.98;42.66
46782;BME280;32541;46.298;11.506;2022-08-11T14:44:26;89662.75;;;26.27;40.93
46782;BME280;32541;46.298;11.506;2022-08-11T14:47:11;89666.22;;;26.66;40.56
46782;BME280;32541;46.298;11.506;2022-08-11T14:49:40;89673.81;;;26.15;40.63
46782;BME280;32541;46.298;11.506;2022-08-11T14:52:08;89678.44;;;25.63;41.66
46782;BME280;32541;46.298;11.506;2022-08-11T14:54:34;89668.34;;;25.50;41.00
46782;BME280;32541;46.298;11.506;2022-08-11T14:57:20;89676.19;;;25.93;41.55
46782;BME280;32541;46.298;11.506;2022-08-11T14:59:48;89659.19;;;25.87;42.00
46782;BME280;32541;46.298;11.506;2022-08-11T15:02:15;89670.88;;;26.09;40.52
46782;BME280;32541;46.298;11.506;2022-08-11T15:05:02;89671.06;;;25.81;41.84
46782;BME280;32541;46.298;11.506;2022-08-11T15:07:28;89671.53;;;25.70;40.98
46782;BME280;32541;46.298;11.506;2022-08-11T15:10:00;89666.38;;;25.94;41.21
46782;BME280;32541;46.298;11.506;2022-08-11T15:12:26;89659.63;;;25.73;41.66
46782;BME280;32541;46.298;11.506;2022-08-11T15:14:53;89648.13;;;25.61;42.82
46782;BME280;32541;46.298;11.506;2022-08-11T15:17:38;89669.34;;;25.66;42.05
46782;BME280;32541;46.298;11.506;2022-08-11T15:20:14;89669.56;;;25.09;43.14
46782;BME280;32541;46.298;11.506;2022-08-11T15:22:59;89664.09;;;25.17;42.51
46782;BME280;32541;46.298;11.506;2022-08-11T15:25:46;89665.09;;;24.68;43.56
46782;BME280;32541;46.298;11.506;2022-08-11T15:28:15;89660.94;;;25.01;43.15
46782;BME280;32541;46.298;11.506;2022-08-11T15:31:02;89652.88;;;24.55;43.04
46782;BME280;32541;46.298;11.506;2022-08-11T15:33:51;89657.94;;;24.63;43.85
46782;BME280;32541;46.298;11.506;2022-08-11T15:36:36;89642.25;;;24.81;43.53
46782;BME280;32541;46.298;11.506;2022-08-11T15:39:30;89652.66;;;24.77;42.93
46782;BME280;32541;46.298;11.506;2022-08-11T15:42:00;89648.31;;;25.02;44.14
46782;BME280;32541;46.298;11.506;2022-08-11T15:44:51;89661.47;;;24.93;42.79
46782;BME280;32541;46.298;11.506;2022-08-11T15:47:54;89650.84;;;24.60;42.69
46782;BME280;32541;46.298;11.506;2022-08-11T15:50:27;89635.78;;;24.77;43.86
46782;BME280;32541;46.298;11.506;2022-08-11T15:52:58;89646.34;;;25.08;43.71
46782;BME280;32541;46.298;11.506;2022-08-11T15:55:25;89638.97;;;24.93;44.04
46782;BME280;32541;46.298;11.506;2022-08-11T15:57:54;89641.22;;;24.39;43.36
46782;BME280;32541;46.298;11.506;2022-08-11T16:00:40;89638.59;;;24.47;44.90
46782;BME280;32541;46.298;11.506;2022-08-11T16:03:26;89641.31;;;24.73;44.21
46782;BME280;32541;46.298;11.506;2022-08-11T16:06:12;89644.38;;;24.83;44.65
46782;BME280;32541;46.298;11.506;2022-08-11T16:08:39;89644.00;;;24.99;44.54
46782;BME280;32541;46.298;11.506;2022-08-11T16:11:07;89648.56;;;25.14;42.94
46782;BME280;32541;46.298;11.506;2022-08-11T16:13:36;89642.22;;;25.13;43.86
46782;BME280;32541;46.298;11.506;2022-08-11T16:16:07;89653.63;;;25.21;44.67
46782;BME280;32541;46.298;11.506;2022-08-11T16:18:58;89644.91;;;25.07;42.75
46782;BME280;32541;46.298;11.506;2022-08-11T16:21:30;89641.91;;;24.38;43.54
46782;BME280;32541;46.298;11.506;2022-08-11T16:23:57;89629.53;;;24.49;44.67
46782;BME280;32541;46.298;11.506;2022-08-11T16:26:24;89632.75;;;24.67;44.56
46782;BME280;32541;46.298;11.506;2022-08-11T16:28:54;89637.78;;;24.72;43.78
46782;BME280;32541;46.298;11.506;2022-08-11T16:31:21;89641.19;;;24.67;44.84
46782;BME280;32541;46.298;11.506;2022-08-11T16:33:47;89640.31;;;24.60;44.00
46782;BME280;32541;46.298;11.506;2022-08-11T16:36:15;89640.22;;;24.56;44.32
46782;BME280;32541;46.298;11.506;2022-08-11T16:39:02;89632.59;;;24.61;44.32
46782;BME280;32541;46.298;11.506;2022-08-11T16:41:30;89646.19;;;24.41;44.32
46782;BME280;32541;46.298;11.506;2022-08-11T16:44:16;89659.28;;;24.30;44.36
46782;BME280;32541;46.298;11.506;2022-08-11T16:47:05;89652.72;;;23.94;44.77
46782;BME280;32541;46.298;11.506;2022-08-11T16:49:37;89649.50;;;24.05;45.93
46782;BME280;32541;46.298;11.506;2022-08-11T16:52:05;89657.94;;;24.05;45.27
46782;BME280;32541;46.298;11.506;2022-08-11T16:54:35;89660.50;;;23.95;45.46